sensor_id;sensor_type;location;lat;lon;timestamp;temperature;humidity
76787;DHT22;65739;51.482;5.702;2023-03-22T00:00:28;9.40;99.90
76787;DHT22;65739;51.482;5.702;2023-03-22T00:02:55;9.40;99.90
76787;DHT22;65739;51.482;5.702;2023-03-22T00:05:21;9.30;99.90
76787;DHT22;65739;51.482;5.702;2023-03-22T00:07:47;9.20;99.90
76787;DHT22;65739;51.482;5.702;2023-03-22T00:10:19;9.20;99.90
76787;DHT22;65739;51.482;5.702;2023-03-22T00:12:44;9.20;99.90
76787;DHT22;65739;51.482;5.702;2023-03-22T00:15:11;9.10;99.90
76787;DHT22;65739;51.482;5.702;2023-03-22T00:17:36;9.20;99.90
76787;DHT22;65739;51.482;5.702;2023-03-22T00:20:03;8.80;99.90
76787;DHT22;65739;51.482;5.702;2023-03-22T00:22:31;9.00;99.90
76787;DHT22;65739;51.482;5.702;2023-03-22T00:24:57;8.90;99.90
76787;DHT22;65739;51.482;5.702;2023-03-22T00:27:23;9.00;99.90
76787;DHT22;65739;51.482;5.702;2023-03-22T00:29:51;9.00;99.90
76787;DHT22;65739;51.482;5.702;2023-03-22T00:32:16;8.90;99.90
76787;DHT22;65739;51.482;5.702;2023-03-22T00:34:42;8.80;99.90
76787;DHT22;65739;51.482;5.702;2023-03-22T00:37:07;8.80;99.90
76787;DHT22;65739;51.482;5.702;2023-03-22T00:39:33;8.70;99.90
76787;DHT22;65739;51.482;5.702;2023-03-22T00:41:58;8.60;99.90
76787;DHT22;65739;51.482;5.702;2023-03-22T00:44:24;8.70;99.90
76787;DHT22;65739;51.482;5.702;2023-03-22T00:46:50;8.60;99.90
76787;DHT22;65739;51.482;5.702;2023-03-22T00:49:15;8.60;99.90
76787;DHT22;65739;51.482;5.702;2023-03-22T00:51:41;8.60;99.90
76787;DHT22;65739;51.482;5.702;2023-03-22T00:54:06;8.60;99.90
76787;DHT22;65739;51.482;5.702;2023-03-22T00:56:32;8.60;99.90
76787;DHT22;65739;51.482;5.702;2023-03-22T00:58:58;8.50;99.90
76787;DHT22;65739;51.482;5.702;2023-03-22T01:01:24;8.50;99.90
76787;DHT22;65739;51.482;5.702;2023-03-22T01:03:49;8.50;99.90
76787;DHT22;65739;51.482;5.702;2023-03-22T01:06:15;8.50;99.90
76787;DHT22;65739;51.482;5.702;2023-03-22T01:08:41;8.40;99.90
76787;DHT22;65739;51.482;5.702;2023-03-22T01:11:08;8.40;99.90
76787;DHT22;65739;51.482;5.702;2023-03-22T01:13:35;8.40;99.90
76787;DHT22;65739;51.482;5.702;2023-03-22T01:16:05;8.50;99.90
76787;DHT22;65739;51.482;5.702;2023-03-22T01:18:30;8.60;99.90
76787;DHT22;65739;51.482;5.702;2023-03-22T01:20:58;8.80;99.90
76787;DHT22;65739;51.482;5.702;2023-03-22T01:23:23;8.80;99.90
76787;DHT22;65739;51.482;5.702;2023-03-22T01:25:49;9.00;99.90
76787;DHT22;65739;51.482;5.702;2023-03-22T01:28:14;9.20;99.90
76787;DHT22;65739;51.482;5.702;2023-03-22T01:30:40;9.20;99.90
76787;DHT22;65739;51.482;5.702;2023-03-22T01:33:06;9.20;99.90
76787;DHT22;65739;51.482;5.702;2023-03-22T01:35:32;9.20;99.90
76787;DHT22;65739;51.482;5.702;2023-03-22T01:37:58;9.20;99.90
76787;DHT22;65739;51.482;5.702;2023-03-22T01:40:25;9.20;99.90
76787;DHT22;65739;51.482;5.702;2023-03-22T01:42:52;9.20;99.90
76787;DHT22;65739;51.482;5.702;2023-03-22T01:45:37;9.20;99.90
76787;DHT22;65739;51.482;5.702;2023-03-22T01:48:11;9.20;99.90
76787;DHT22;65739;51.482;5.702;2023-03-22T01:50:40;9.20;99.90
76787;DHT22;65739;51.482;5.702;2023-03-22T01:53:08;9.30;99.90
76787;DHT22;65739;51.482;5.702;2023-03-22T01:55:36;9.30;99.90
76787;DHT22;65739;51.482;5.702;2023-03-22T01:58:02;9.50;99.90
76787;DHT22;65739;51.482;5.702;2023-03-22T02:00:28;9.60;99.90
76787;DHT22;65739;51.482;5.702;2023-03-22T02:02:54;9.60;99.90
76787;DHT22;65739;51.482;5.702;2023-03-22T02:05:20;9.50;99.90
76787;DHT22;65739;51.482;5.702;2023-03-22T02:07:49;9.60;99.90
76787;DHT22;65739;51.482;5.702;2023-03-22T02:10:17;9.50;99.90
76787;DHT22;65739;51.482;5.702;2023-03-22T02:18:39;9.60;99.90
76787;DHT22;65739;51.482;5.702;2023-03-22T02:21:31;9.70;99.90
76787;DHT22;65739;51.482;5.702;2023-03-22T02:24:19;9.80;99.90
76787;DHT22;65739;51.482;5.702;2023-03-22T02:27:02;9.80;99.90
76787;DHT22;65739;51.482;5.702;2023-03-22T02:35:30;9.80;99.90
76787;DHT22;65739;51.482;5.702;2023-03-22T02:41:12;10.00;99.90
76787;DHT22;65739;51.482;5.702;2023-03-22T02:43:59;9.90;99.90
76787;DHT22;65739;51.482;5.702;2023-03-22T02:51:49;9.90;99.90
76787;DHT22;65739;51.482;5.702;2023-03-22T02:54:21;9.90;99.90
76787;DHT22;65739;51.482;5.702;2023-03-22T02:56:54;10.00;99.90
76787;DHT22;65739;51.482;5.702;2023-03-22T02:59:22;10.00;99.90
76787;DHT22;65739;51.482;5.702;2023-03-22T03:01:55;10.00;99.90
76787;DHT22;65739;51.482;5.702;2023-03-22T03:04:29;10.00;99.90
76787;DHT22;65739;51.482;5.702;2023-03-22T03:07:00;10.00;99.90
76787;DHT22;65739;51.482;5.702;2023-03-22T03:09:27;10.10;99.90
76787;DHT22;65739;51.482;5.702;2023-03-22T03:11:53;10.00;99.90
76787;DHT22;65739;51.482;5.702;2023-03-22T03:14:21;10.00;99.90
76787;DHT22;65739;51.482;5.702;2023-03-22T03:16:58;10.00;99.90
76787;DHT22;65739;51.482;5.702;2023-03-22T03:22:32;10.00;99.90
76787;DHT22;65739;51.482;5.702;2023-03-22T03:25:18;10.00;99.90
76787;DHT22;65739;51.482;5.702;2023-03-22T03:28:10;10.00;99.90
76787;DHT22;65739;51.482;5.702;2023-03-22T03:30:49;10.10;99.90
76787;DHT22;65739;51.482;5.702;2023-03-22T03:33:18;10.00;99.90
76787;DHT22;65739;51.482;5.702;2023-03-22T03:35:51;10.00;99.90
76787;DHT22;65739;51.482;5.702;2023-03-22T03:38:24;10.00;99.90
76787;DHT22;65739;51.482;5.702;2023-03-22T03:40:57;10.00;99.90
76787;DHT22;65739;51.482;5.702;2023-03-22T03:43:24;9.90;99.90
76787;DHT22;65739;51.482;5.702;2023-03-22T03:45:51;10.10;99.90
76787;DHT22;65739;51.482;5.702;2023-03-22T03:48:18;10.00;99.90
76787;DHT22;65739;51.482;5.702;2023-03-22T03:50:46;10.00;99.90
76787;DHT22;65739;51.482;5.702;2023-03-22T03:53:14;10.00;99.90
76787;DHT22;65739;51.482;5.702;2023-03-22T03:55:40;10.00;99.90
76787;DHT22;65739;51.482;5.702;2023-03-22T03:58:05;10.00;99.90
76787;DHT22;65739;51.482;5.702;2023-03-22T04:00:33;10.00;99.90
76787;DHT22;65739;51.482;5.702;2023-03-22T04:02:58;9.90;99.90
76787;DHT22;65739;51.482;5.702;2023-03-22T04:05:24;9.90;99.90
76787;DHT22;65739;51.482;5.702;2023-03-22T04:07:50;9.90;99.90
76787;DHT22;65739;51.482;5.702;2023-03-22T04:10:15;9.90;99.90
76787;DHT22;65739;51.482;5.702;2023-03-22T04:12:41;9.90;99.90
76787;DHT22;65739;51.482;5.702;2023-03-22T04:15:07;9.90;99.90
76787;DHT22;65739;51.482;5.702;2023-03-22T04:17:32;9.90;99.90
76787;DHT22;65739;51.482;5.702;2023-03-22T04:19:58;9.90;99.90
76787;DHT22;65739;51.482;5.702;2023-03-22T04:22:24;9.80;99.90
76787;DHT22;65739;51.482;5.702;2023-03-22T04:24:51;9.80;99.90
76787;DHT22;65739;51.482;5.702;2023-03-22T04:27:17;9.70;99.90
76787;DHT22;65739;51.482;5.702;2023-03-22T04:29:43;9.70;99.90
76787;DHT22;65739;51.482;5.702;2023-03-22T04:32:17;9.70;99.90
76787;DHT22;65739;51.482;5.702;2023-03-22T04:34:47;9.60;99.90
76787;DHT22;65739;51.482;5.702;2023-03-22T04:37:14;9.60;99.90
76787;DHT22;65739;51.482;5.702;2023-03-22T04:39:40;9.60;99.90
76787;DHT22;65739;51.482;5.702;2023-03-22T04:42:05;9.60;99.90
76787;DHT22;65739;51.482;5.702;2023-03-22T04:44:31;9.60;99.90
76787;DHT22;65739;51.482;5.702;2023-03-22T04:46:56;9.60;99.90
76787;DHT22;65739;51.482;5.702;2023-03-22T04:49:22;9.60;99.90
76787;DHT22;65739;51.482;5.702;2023-03-22T04:51:48;9.60;99.90
76787;DHT22;65739;51.482;5.702;2023-03-22T04:54:13;9.60;99.90
76787;DHT22;65739;51.482;5.702;2023-03-22T04:56:39;9.60;99.90
76787;DHT22;65739;51.482;5.702;2023-03-22T04:59:05;9.60;99.90
76787;DHT22;65739;51.482;5.702;2023-03-22T05:01:30;9.60;99.90
76787;DHT22;65739;51.482;5.702;2023-03-22T05:03:56;9.60;99.90
76787;DHT22;65739;51.482;5.702;2023-03-22T05:06:21;9.60;99.90
76787;DHT22;65739;51.482;5.702;2023-03-22T05:08:47;9.50;99.90
76787;DHT22;65739;51.482;5.702;2023-03-22T05:11:14;9.60;99.90
76787;DHT22;65739;51.482;5.702;2023-03-22T05:13:41;9.50;99.90
76787;DHT22;65739;51.482;5.702;2023-03-22T05:16:07;9.60;99.90
76787;DHT22;65739;51.482;5.702;2023-03-22T05:18:33;9.60;99.90
76787;DHT22;65739;51.482;5.702;2023-03-22T05:21:03;9.70;99.90
76787;DHT22;65739;51.482;5.702;2023-03-22T05:23:31;9.70;99.90
76787;DHT22;65739;51.482;5.702;2023-03-22T05:25:57;9.80;99.90
76787;DHT22;65739;51.482;5.702;2023-03-22T05:28:23;9.90;99.90
76787;DHT22;65739;51.482;5.702;2023-03-22T05:30:50;9.80;99.90
76787;DHT22;65739;51.482;5.702;2023-03-22T05:33:16;9.90;99.90
76787;DHT22;65739;51.482;5.702;2023-03-22T05:35:46;9.90;99.90
76787;DHT22;65739;51.482;5.702;2023-03-22T05:38:12;9.90;99.90
76787;DHT22;65739;51.482;5.702;2023-03-22T05:40:38;10.00;99.90
76787;DHT22;65739;51.482;5.702;2023-03-22T05:43:03;10.00;99.90
76787;DHT22;65739;51.482;5.702;2023-03-22T05:45:29;10.00;99.90
76787;DHT22;65739;51.482;5.702;2023-03-22T05:47:56;10.00;99.90
76787;DHT22;65739;51.482;5.702;2023-03-22T05:50:22;10.00;99.90
76787;DHT22;65739;51.482;5.702;2023-03-22T05:52:49;10.00;99.90
76787;DHT22;65739;51.482;5.702;2023-03-22T05:55:16;10.00;99.90
76787;DHT22;65739;51.482;5.702;2023-03-22T05:57:43;10.00;99.90
76787;DHT22;65739;51.482;5.702;2023-03-22T06:00:11;10.00;99.90
76787;DHT22;65739;51.482;5.702;2023-03-22T06:02:41;10.00;99.90
76787;DHT22;65739;51.482;5.702;2023-03-22T06:05:08;10.00;99.90
76787;DHT22;65739;51.482;5.702;2023-03-22T06:07:36;10.00;99.90
76787;DHT22;65739;51.482;5.702;2023-03-22T06:10:02;10.00;99.90
76787;DHT22;65739;51.482;5.702;2023-03-22T06:12:28;10.00;99.90
76787;DHT22;65739;51.482;5.702;2023-03-22T06:14:53;10.00;99.90
76787;DHT22;65739;51.482;5.702;2023-03-22T06:17:19;10.10;99.90
76787;DHT22;65739;51.482;5.702;2023-03-22T06:19:45;10.10;99.90
76787;DHT22;65739;51.482;5.702;2023-03-22T06:22:11;10.10;99.90
76787;DHT22;65739;51.482;5.702;2023-03-22T06:24:37;10.10;99.90
76787;DHT22;65739;51.482;5.702;2023-03-22T06:27:05;10.10;99.90
76787;DHT22;65739;51.482;5.702;2023-03-22T06:29:31;10.20;99.90
76787;DHT22;65739;51.482;5.702;2023-03-22T06:31:57;10.20;99.90
76787;DHT22;65739;51.482;5.702;2023-03-22T06:34:23;10.30;99.90
76787;DHT22;65739;51.482;5.702;2023-03-22T06:36:48;10.20;99.90
76787;DHT22;65739;51.482;5.702;2023-03-22T06:39:14;10.30;99.90
76787;DHT22;65739;51.482;5.702;2023-03-22T06:41:39;10.40;99.90
76787;DHT22;65739;51.482;5.702;2023-03-22T06:44:05;10.40;99.90
76787;DHT22;65739;51.482;5.702;2023-03-22T06:46:30;10.40;99.90
76787;DHT22;65739;51.482;5.702;2023-03-22T06:48:56;10.50;99.90
76787;DHT22;65739;51.482;5.702;2023-03-22T06:51:22;10.50;99.90
76787;DHT22;65739;51.482;5.702;2023-03-22T06:53:47;10.60;99.90
76787;DHT22;65739;51.482;5.702;2023-03-22T06:56:13;10.60;99.90
76787;DHT22;65739;51.482;5.702;2023-03-22T06:58:38;10.60;99.90
76787;DHT22;65739;51.482;5.702;2023-03-22T07:01:04;10.60;99.90
76787;DHT22;65739;51.482;5.702;2023-03-22T07:03:29;10.70;99.90
76787;DHT22;65739;51.482;5.702;2023-03-22T07:06:06;10.70;99.90
76787;DHT22;65739;51.482;5.702;2023-03-22T07:08:33;10.80;99.90
76787;DHT22;65739;51.482;5.702;2023-03-22T07:10:59;10.80;99.90
76787;DHT22;65739;51.482;5.702;2023-03-22T07:13:24;10.90;99.90
76787;DHT22;65739;51.482;5.702;2023-03-22T07:15:57;10.90;99.90
76787;DHT22;65739;51.482;5.702;2023-03-22T07:18:24;11.10;99.90
76787;DHT22;65739;51.482;5.702;2023-03-22T07:20:50;11.10;99.90
76787;DHT22;65739;51.482;5.702;2023-03-22T07:23:17;11.20;99.90
76787;DHT22;65739;51.482;5.702;2023-03-22T07:25:43;11.20;99.90
76787;DHT22;65739;51.482;5.702;2023-03-22T07:28:09;11.20;99.90
76787;DHT22;65739;51.482;5.702;2023-03-22T07:30:38;11.10;99.90
76787;DHT22;65739;51.482;5.702;2023-03-22T07:33:06;11.10;99.90
76787;DHT22;65739;51.482;5.702;2023-03-22T07:35:32;11.10;99.90
76787;DHT22;65739;51.482;5.702;2023-03-22T07:37:58;11.20;99.90
76787;DHT22;65739;51.482;5.702;2023-03-22T07:40:24;11.40;99.90
76787;DHT22;65739;51.482;5.702;2023-03-22T07:42:50;11.40;99.90
76787;DHT22;65739;51.482;5.702;2023-03-22T07:45:17;11.60;99.90
76787;DHT22;65739;51.482;5.702;2023-03-22T07:47:43;11.50;99.90
76787;DHT22;65739;51.482;5.702;2023-03-22T07:50:10;11.50;99.90
76787;DHT22;65739;51.482;5.702;2023-03-22T07:52:40;11.40;99.90
76787;DHT22;65739;51.482;5.702;2023-03-22T07:55:06;11.40;99.90
76787;DHT22;65739;51.482;5.702;2023-03-22T07:57:34;11.40;99.90
76787;DHT22;65739;51.482;5.702;2023-03-22T07:59:59;11.40;99.90
76787;DHT22;65739;51.482;5.702;2023-03-22T08:02:25;11.50;99.90
76787;DHT22;65739;51.482;5.702;2023-03-22T08:04:50;11.60;99.90
76787;DHT22;65739;51.482;5.702;2023-03-22T08:07:17;11.60;99.90
76787;DHT22;65739;51.482;5.702;2023-03-22T08:09:43;11.80;99.90
76787;DHT22;65739;51.482;5.702;2023-03-22T08:12:10;11.90;99.90
76787;DHT22;65739;51.482;5.702;2023-03-22T08:14:35;12.00;99.90
76787;DHT22;65739;51.482;5.702;2023-03-22T08:17:02;12.00;99.90
76787;DHT22;65739;51.482;5.702;2023-03-22T08:19:28;12.20;99.90
76787;DHT22;65739;51.482;5.702;2023-03-22T08:21:53;12.20;99.90
76787;DHT22;65739;51.482;5.702;2023-03-22T08:24:19;11.90;99.90
76787;DHT22;65739;51.482;5.702;2023-03-22T08:26:45;11.90;99.90
76787;DHT22;65739;51.482;5.702;2023-03-22T08:29:14;11.90;99.90
76787;DHT22;65739;51.482;5.702;2023-03-22T08:31:39;11.80;99.90
76787;DHT22;65739;51.482;5.702;2023-03-22T08:34:05;11.90;99.90
76787;DHT22;65739;51.482;5.702;2023-03-22T08:36:31;12.00;99.90
76787;DHT22;65739;51.482;5.702;2023-03-22T08:38:56;12.00;99.90
76787;DHT22;65739;51.482;5.702;2023-03-22T08:41:22;12.30;99.90
76787;DHT22;65739;51.482;5.702;2023-03-22T08:43:48;12.10;99.90
76787;DHT22;65739;51.482;5.702;2023-03-22T08:46:13;12.20;99.90
76787;DHT22;65739;51.482;5.702;2023-03-22T08:48:39;12.30;99.90
76787;DHT22;65739;51.482;5.702;2023-03-22T08:51:06;12.50;99.90
76787;DHT22;65739;51.482;5.702;2023-03-22T08:53:31;12.90;99.90
76787;DHT22;65739;51.482;5.702;2023-03-22T08:55:57;13.10;99.90
76787;DHT22;65739;51.482;5.702;2023-03-22T08:58:26;13.20;99.90
76787;DHT22;65739;51.482;5.702;2023-03-22T09:00:51;13.30;99.90
76787;DHT22;65739;51.482;5.702;2023-03-22T09:03:17;13.30;99.90
76787;DHT22;65739;51.482;5.702;2023-03-22T09:05:42;13.40;99.90
76787;DHT22;65739;51.482;5.702;2023-03-22T09:08:08;13.40;99.90
76787;DHT22;65739;51.482;5.702;2023-03-22T09:10:36;13.30;99.90
76787;DHT22;65739;51.482;5.702;2023-03-22T09:13:02;13.20;99.90
76787;DHT22;65739;51.482;5.702;2023-03-22T09:15:27;13.20;99.90
76787;DHT22;65739;51.482;5.702;2023-03-22T09:17:53;13.20;99.90
76787;DHT22;65739;51.482;5.702;2023-03-22T09:20:18;13.20;99.90
76787;DHT22;65739;51.482;5.702;2023-03-22T09:22:49;13.40;99.90
76787;DHT22;65739;51.482;5.702;2023-03-22T09:25:15;13.40;99.90
76787;DHT22;65739;51.482;5.702;2023-03-22T09:27:41;13.40;99.90
76787;DHT22;65739;51.482;5.702;2023-03-22T09:30:07;13.40;99.90
76787;DHT22;65739;51.482;5.702;2023-03-22T09:32:32;13.20;99.90
76787;DHT22;65739;51.482;5.702;2023-03-22T09:34:58;13.40;99.90
76787;DHT22;65739;51.482;5.702;2023-03-22T09:37:24;13.60;99.90
76787;DHT22;65739;51.482;5.702;2023-03-22T09:39:55;13.60;99.90
76787;DHT22;65739;51.482;5.702;2023-03-22T09:42:40;13.70;99.90
76787;DHT22;65739;51.482;5.702;2023-03-22T09:45:12;13.70;99.90
76787;DHT22;65739;51.482;5.702;2023-03-22T09:47:43;13.70;99.90
76787;DHT22;65739;51.482;5.702;2023-03-22T09:50:23;13.90;99.90
76787;DHT22;65739;51.482;5.702;2023-03-22T09:52:49;13.80;99.90
76787;DHT22;65739;51.482;5.702;2023-03-22T09:55:24;13.80;99.90
76787;DHT22;65739;51.482;5.702;2023-03-22T10:06:07;13.50;99.90
76787;DHT22;65739;51.482;5.702;2023-03-22T10:08:57;13.50;99.90
76787;DHT22;65739;51.482;5.702;2023-03-22T10:11:45;13.40;99.90
76787;DHT22;65739;51.482;5.702;2023-03-22T10:14:31;13.30;99.90
76787;DHT22;65739;51.482;5.702;2023-03-22T10:17:01;13.20;99.90
76787;DHT22;65739;51.482;5.702;2023-03-22T10:22:06;13.10;99.90
76787;DHT22;65739;51.482;5.702;2023-03-22T10:24:35;13.10;99.90
76787;DHT22;65739;51.482;5.702;2023-03-22T10:27:03;13.10;99.90
76787;DHT22;65739;51.482;5.702;2023-03-22T10:29:56;13.10;99.90
76787;DHT22;65739;51.482;5.702;2023-03-22T10:32:41;13.00;99.90
76787;DHT22;65739;51.482;5.702;2023-03-22T10:35:15;13.00;99.90
76787;DHT22;65739;51.482;5.702;2023-03-22T10:37:43;12.90;99.90
76787;DHT22;65739;51.482;5.702;2023-03-22T10:40:17;13.00;99.90
76787;DHT22;65739;51.482;5.702;2023-03-22T10:42:50;13.00;99.90
76787;DHT22;65739;51.482;5.702;2023-03-22T10:45:17;13.00;99.90
76787;DHT22;65739;51.482;5.702;2023-03-22T10:47:52;12.90;99.90
76787;DHT22;65739;51.482;5.702;2023-03-22T10:50:42;12.70;99.90
76787;DHT22;65739;51.482;5.702;2023-03-22T10:56:15;12.60;99.90
76787;DHT22;65739;51.482;5.702;2023-03-22T10:58:43;12.40;99.90
76787;DHT22;65739;51.482;5.702;2023-03-22T11:01:15;12.40;99.90
76787;DHT22;65739;51.482;5.702;2023-03-22T11:03:50;12.40;99.90
76787;DHT22;65739;51.482;5.702;2023-03-22T11:06:18;12.50;99.90
76787;DHT22;65739;51.482;5.702;2023-03-22T11:08:50;12.50;99.90
76787;DHT22;65739;51.482;5.702;2023-03-22T11:14:15;12.60;99.90
76787;DHT22;65739;51.482;5.702;2023-03-22T11:16:51;12.70;99.90
76787;DHT22;65739;51.482;5.702;2023-03-22T11:19:49;12.80;99.90
76787;DHT22;65739;51.482;5.702;2023-03-22T11:22:34;12.90;99.90
76787;DHT22;65739;51.482;5.702;2023-03-22T11:25:01;12.70;99.90
76787;DHT22;65739;51.482;5.702;2023-03-22T11:27:31;12.70;99.90
76787;DHT22;65739;51.482;5.702;2023-03-22T11:30:20;12.70;99.90
76787;DHT22;65739;51.482;5.702;2023-03-22T11:32:44;12.60;99.90
76787;DHT22;65739;51.482;5.702;2023-03-22T11:35:21;12.60;99.90
76787;DHT22;65739;51.482;5.702;2023-03-22T11:37:50;12.60;99.90
76787;DHT22;65739;51.482;5.702;2023-03-22T11:40:18;12.40;99.90
76787;DHT22;65739;51.482;5.702;2023-03-22T11:42:46;12.60;99.90
76787;DHT22;65739;51.482;5.702;2023-03-22T11:45:15;12.40;99.90
76787;DHT22;65739;51.482;5.702;2023-03-22T11:47:42;12.40;99.90
76787;DHT22;65739;51.482;5.702;2023-03-22T11:50:24;12.40;99.90
76787;DHT22;65739;51.482;5.702;2023-03-22T11:52:51;12.30;99.90
76787;DHT22;65739;51.482;5.702;2023-03-22T11:55:18;12.20;99.90
76787;DHT22;65739;51.482;5.702;2023-03-22T11:57:45;12.10;99.90
76787;DHT22;65739;51.482;5.702;2023-03-22T12:02:44;12.30;99.90
76787;DHT22;65739;51.482;5.702;2023-03-22T12:05:24;12.40;99.90
76787;DHT22;65739;51.482;5.702;2023-03-22T12:07:59;12.40;99.90
76787;DHT22;65739;51.482;5.702;2023-03-22T12:10:41;12.50;99.90
76787;DHT22;65739;51.482;5.702;2023-03-22T12:16:08;12.70;99.90
76787;DHT22;65739;51.482;5.702;2023-03-22T12:21:57;13.00;99.90
76787;DHT22;65739;51.482;5.702;2023-03-22T12:24:26;13.10;99.90
76787;DHT22;65739;51.482;5.702;2023-03-22T12:27:25;13.20;99.90
76787;DHT22;65739;51.482;5.702;2023-03-22T12:29:57;13.10;99.90
76787;DHT22;65739;51.482;5.702;2023-03-22T12:32:35;13.00;99.90
76787;DHT22;65739;51.482;5.702;2023-03-22T12:35:04;12.90;99.90
76787;DHT22;65739;51.482;5.702;2023-03-22T12:37:33;12.80;99.90
76787;DHT22;65739;51.482;5.702;2023-03-22T12:40:25;12.80;99.90
76787;DHT22;65739;51.482;5.702;2023-03-22T12:45:44;12.70;99.90
76787;DHT22;65739;51.482;5.702;2023-03-22T12:48:20;12.90;99.90
76787;DHT22;65739;51.482;5.702;2023-03-22T12:50:56;12.80;99.90
76787;DHT22;65739;51.482;5.702;2023-03-22T12:53:29;12.70;99.90
76787;DHT22;65739;51.482;5.702;2023-03-22T12:55:57;12.80;99.90
76787;DHT22;65739;51.482;5.702;2023-03-22T12:58:25;12.80;99.90
76787;DHT22;65739;51.482;5.702;2023-03-22T13:03:53;12.80;99.90
76787;DHT22;65739;51.482;5.702;2023-03-22T13:06:58;12.80;99.90
76787;DHT22;65739;51.482;5.702;2023-03-22T13:09:37;12.80;99.90
76787;DHT22;65739;51.482;5.702;2023-03-22T13:14:57;12.70;99.90
76787;DHT22;65739;51.482;5.702;2023-03-22T13:33:11;12.80;99.90
76787;DHT22;65739;51.482;5.702;2023-03-22T13:35:45;12.80;99.90
76787;DHT22;65739;51.482;5.702;2023-03-22T13:38:32;12.70;99.90
76787;DHT22;65739;51.482;5.702;2023-03-22T13:41:07;12.80;99.90
76787;DHT22;65739;51.482;5.702;2023-03-22T13:43:42;12.80;99.90
76787;DHT22;65739;51.482;5.702;2023-03-22T13:51:30;12.80;99.90
76787;DHT22;65739;51.482;5.702;2023-03-22T13:59:17;12.90;99.90
76787;DHT22;65739;51.482;5.702;2023-03-22T14:02:20;12.90;99.90
76787;DHT22;65739;51.482;5.702;2023-03-22T14:05:02;12.90;99.90
76787;DHT22;65739;51.482;5.702;2023-03-22T14:08:12;13.00;99.90
76787;DHT22;65739;51.482;5.702;2023-03-22T14:10:45;13.00;99.90
76787;DHT22;65739;51.482;5.702;2023-03-22T14:15:54;13.00;99.90
76787;DHT22;65739;51.482;5.702;2023-03-22T14:18:32;12.90;99.90
76787;DHT22;65739;51.482;5.702;2023-03-22T14:21:06;13.00;99.90
76787;DHT22;65739;51.482;5.702;2023-03-22T14:23:38;13.00;99.90
76787;DHT22;65739;51.482;5.702;2023-03-22T14:26:16;12.90;99.90
76787;DHT22;65739;51.482;5.702;2023-03-22T14:28:42;12.90;99.90
76787;DHT22;65739;51.482;5.702;2023-03-22T14:31:28;12.90;99.90
76787;DHT22;65739;51.482;5.702;2023-03-22T14:34:00;12.80;99.90
76787;DHT22;65739;51.482;5.702;2023-03-22T14:36:28;12.80;99.90
76787;DHT22;65739;51.482;5.702;2023-03-22T14:39:03;12.70;99.90
76787;DHT22;65739;51.482;5.702;2023-03-22T14:41:32;12.70;99.90
76787;DHT22;65739;51.482;5.702;2023-03-22T14:44:00;12.70;99.90
76787;DHT22;65739;51.482;5.702;2023-03-22T14:46:36;12.70;99.90
76787;DHT22;65739;51.482;5.702;2023-03-22T14:49:14;12.70;99.90
76787;DHT22;65739;51.482;5.702;2023-03-22T14:51:40;12.80;99.90
76787;DHT22;65739;51.482;5.702;2023-03-22T14:54:15;12.80;99.90
76787;DHT22;65739;51.482;5.702;2023-03-22T14:56:43;12.80;99.90
76787;DHT22;65739;51.482;5.702;2023-03-22T14:59:18;12.80;99.90
76787;DHT22;65739;51.482;5.702;2023-03-22T15:01:57;12.70;99.90
76787;DHT22;65739;51.482;5.702;2023-03-22T15:04:25;12.70;99.90
76787;DHT22;65739;51.482;5.702;2023-03-22T15:06:55;12.80;99.90
76787;DHT22;65739;51.482;5.702;2023-03-22T15:09:22;12.80;99.90
76787;DHT22;65739;51.482;5.702;2023-03-22T15:11:50;12.80;99.90
76787;DHT22;65739;51.482;5.702;2023-03-22T15:14:18;12.90;99.90
76787;DHT22;65739;51.482;5.702;2023-03-22T15:16:46;12.80;99.90
76787;DHT22;65739;51.482;5.702;2023-03-22T15:19:16;12.80;99.90
76787;DHT22;65739;51.482;5.702;2023-03-22T15:21:42;12.80;99.90
76787;DHT22;65739;51.482;5.702;2023-03-22T15:26:38;12.90;99.90
76787;DHT22;65739;51.482;5.702;2023-03-22T15:29:06;12.90;99.90
76787;DHT22;65739;51.482;5.702;2023-03-22T15:31:44;12.80;99.90
76787;DHT22;65739;51.482;5.702;2023-03-22T15:34:18;12.90;99.90
76787;DHT22;65739;51.482;5.702;2023-03-22T15:36:45;13.00;99.90
76787;DHT22;65739;51.482;5.702;2023-03-22T15:39:26;12.90;99.90
76787;DHT22;65739;51.482;5.702;2023-03-22T15:44:49;12.80;99.90
76787;DHT22;65739;51.482;5.702;2023-03-22T15:47:17;12.70;99.90
76787;DHT22;65739;51.482;5.702;2023-03-22T15:49:49;12.60;99.90
76787;DHT22;65739;51.482;5.702;2023-03-22T15:57:36;12.50;99.90
76787;DHT22;65739;51.482;5.702;2023-03-22T16:00:17;12.40;99.90
76787;DHT22;65739;51.482;5.702;2023-03-22T16:05:20;12.20;99.90
76787;DHT22;65739;51.482;5.702;2023-03-22T16:07:46;12.10;99.90
76787;DHT22;65739;51.482;5.702;2023-03-22T16:10:17;11.90;99.90
76787;DHT22;65739;51.482;5.702;2023-03-22T16:12:43;11.80;99.90
76787;DHT22;65739;51.482;5.702;2023-03-22T16:15:32;11.80;99.90
76787;DHT22;65739;51.482;5.702;2023-03-22T16:17:58;11.80;99.90
76787;DHT22;65739;51.482;5.702;2023-03-22T16:20:25;11.70;99.90
76787;DHT22;65739;51.482;5.702;2023-03-22T16:22:59;11.70;99.90
76787;DHT22;65739;51.482;5.702;2023-03-22T16:25:26;11.80;99.90
76787;DHT22;65739;51.482;5.702;2023-03-22T16:27:51;11.70;99.90
76787;DHT22;65739;51.482;5.702;2023-03-22T16:30:17;11.70;99.90
76787;DHT22;65739;51.482;5.702;2023-03-22T16:32:44;11.70;99.90
76787;DHT22;65739;51.482;5.702;2023-03-22T16:37:40;11.60;99.90
76787;DHT22;65739;51.482;5.702;2023-03-22T16:40:13;11.60;99.90
76787;DHT22;65739;51.482;5.702;2023-03-22T16:42:39;11.60;99.90
76787;DHT22;65739;51.482;5.702;2023-03-22T16:45:32;11.60;99.90
76787;DHT22;65739;51.482;5.702;2023-03-22T16:47:56;11.50;99.90
76787;DHT22;65739;51.482;5.702;2023-03-22T16:50:23;11.50;99.90
76787;DHT22;65739;51.482;5.702;2023-03-22T16:52:49;11.50;99.90
76787;DHT22;65739;51.482;5.702;2023-03-22T16:55:21;11.40;99.90
76787;DHT22;65739;51.482;5.702;2023-03-22T16:57:48;11.40;99.90
76787;DHT22;65739;51.482;5.702;2023-03-22T17:00:15;11.40;99.90
76787;DHT22;65739;51.482;5.702;2023-03-22T17:02:42;11.40;99.90
76787;DHT22;65739;51.482;5.702;2023-03-22T17:05:09;11.40;99.90
76787;DHT22;65739;51.482;5.702;2023-03-22T17:07:34;11.40;99.90
76787;DHT22;65739;51.482;5.702;2023-03-22T17:10:01;11.30;99.90
76787;DHT22;65739;51.482;5.702;2023-03-22T17:12:30;11.40;99.90
76787;DHT22;65739;51.482;5.702;2023-03-22T17:14:56;11.30;99.90
76787;DHT22;65739;51.482;5.702;2023-03-22T17:17:26;11.30;99.90
76787;DHT22;65739;51.482;5.702;2023-03-22T17:19:52;11.30;99.90
76787;DHT22;65739;51.482;5.702;2023-03-22T17:22:19;11.30;99.90
76787;DHT22;65739;51.482;5.702;2023-03-22T17:24:45;11.30;99.90
76787;DHT22;65739;51.482;5.702;2023-03-22T17:27:11;11.20;99.90
76787;DHT22;65739;51.482;5.702;2023-03-22T17:29:37;11.30;99.90
76787;DHT22;65739;51.482;5.702;2023-03-22T17:32:10;11.20;99.90